Time;durP1;ratioP1;P1;durP2;ratioP2;P2;SDS_P1;SDS_P2;PMS_P1;PMS_P2;Temp;Humidity;BMP_temperature;BMP_pressure;BME280_temperature;BME280_humidity;BME280_pressure;Samples;Min_cycle;Max_cycle;Signal;HPM_P1;HPM_P2
2022/03/16 00:00:13;;;;;;;17.35;12.75;;;10.30;92.50;;;;;;5000820;28;20042;-63
2022/03/16 00:02:44;;;;;;;17.98;13.43;;;10.20;92.50;;;;;;5013739;28;20046;-62
2022/03/16 00:05:12;;;;;;;17.20;12.95;;;10.20;92.50;;;;;;5003440;28;20038;-63
2022/03/16 00:07:40;;;;;;;17.63;12.30;;;10.10;92.70;;;;;;5012832;28;20044;-63
2022/03/16 00:10:09;;;;;;;17.88;13.07;;;10.20;92.60;;;;;;5005908;28;20037;-63
2022/03/16 00:12:38;;;;;;;20.17;12.45;;;10.10;92.70;;;;;;5012326;28;20049;-62
2022/03/16 00:15:07;;;;;;;17.08;12.85;;;10.20;92.70;;;;;;5004346;28;20499;-62
2022/03/16 00:17:34;;;;;;;18.58;12.82;;;10.10;92.70;;;;;;5012073;28;20415;-62
2022/03/16 00:20:02;;;;;;;25.77;14.38;;;10.10;92.70;;;;;;5010744;28;20041;-63
2022/03/16 00:22:30;;;;;;;18.60;12.85;;;10.10;92.80;;;;;;4996590;28;20046;-62
2022/03/16 00:24:58;;;;;;;20.92;13.93;;;10.00;92.90;;;;;;5007751;28;20037;-62
2022/03/16 00:27:26;;;;;;;20.80;14.15;;;9.80;93.10;;;;;;5003805;28;20389;-63
2022/03/16 00:29:54;;;;;;;21.77;15.20;;;9.80;93.20;;;;;;5005212;28;20096;-63
2022/03/16 00:32:21;;;;;;;23.25;15.20;;;9.70;93.40;;;;;;5012028;28;20037;-63
2022/03/16 00:34:49;;;;;;;21.95;15.25;;;9.60;93.40;;;;;;5008853;28;20162;-63
2022/03/16 00:37:16;;;;;;;23.15;14.98;;;9.60;93.50;;;;;;5023766;28;20046;-63
2022/03/16 00:39:44;;;;;;;20.33;14.63;;;9.60;93.50;;;;;;5009461;28;20096;-62
2022/03/16 00:42:12;;;;;;;25.90;17.02;;;9.70;93.50;;;;;;5001688;28;20046;-62
2022/03/16 00:44:39;;;;;;;24.55;14.93;;;9.60;93.50;;;;;;5001488;28;20037;-62
2022/03/16 00:47:07;;;;;;;20.55;14.93;;;9.60;93.60;;;;;;5012305;28;20072;-62
2022/03/16 00:49:35;;;;;;;23.08;14.85;;;9.50;93.60;;;;;;4993627;28;20042;-63
2022/03/16 00:52:03;;;;;;;26.90;16.90;;;9.60;93.80;;;;;;5032033;28;20123;-62
2022/03/16 00:54:31;;;;;;;19.20;14.30;;;9.60;93.70;;;;;;5000347;28;20491;-62
2022/03/16 00:57:01;;;;;;;20.13;15.55;;;9.60;93.60;;;;;;5000326;28;20053;-62
2022/03/16 00:59:29;;;;;;;19.67;14.70;;;9.60;93.70;;;;;;5000184;28;20049;-62
2022/03/16 01:01:57;;;;;;;22.55;14.38;;;9.60;93.70;;;;;;5016267;28;20120;-62
2022/03/16 01:04:25;;;;;;;21.35;13.52;;;9.50;93.90;;;;;;5016608;28;20050;-62
2022/03/16 01:06:54;;;;;;;20.80;13.95;;;9.40;94.00;;;;;;5000118;28;20521;-62
2022/03/16 01:09:22;;;;;;;18.55;12.10;;;9.40;94.10;;;;;;5016358;28;20045;-63
2022/03/16 01:11:50;;;;;;;18.83;13.35;;;9.40;94.10;;;;;;5032717;28;20037;-62
2022/03/16 01:14:18;;;;;;;18.20;12.23;;;9.30;94.20;;;;;;5032529;28;20120;-62
2022/03/16 01:16:45;;;;;;;17.83;11.40;;;9.20;94.40;;;;;;5032265;28;20132;-62
2022/03/16 01:19:14;;;;;;;16.52;11.38;;;9.10;94.60;;;;;;5016208;28;20069;-62
2022/03/16 01:21:44;;;;;;;15.82;11.30;;;9.10;94.70;;;;;;5032623;28;20395;-62
2022/03/16 01:24:11;;;;;;;16.00;10.02;;;9.00;94.90;;;;;;4999952;28;20072;-62
2022/03/16 01:26:39;;;;;;;14.90;10.18;;;9.10;94.90;;;;;;5032465;28;20041;-62
2022/03/16 01:29:06;;;;;;;16.20;10.93;;;9.00;95.00;;;;;;4999998;28;20391;-62
2022/03/16 01:31:35;;;;;;;14.27;9.95;;;9.10;94.90;;;;;;5015951;28;20050;-62
2022/03/16 01:34:03;;;;;;;12.40;9.35;;;9.20;94.90;;;;;;5016252;28;20049;-63
2022/03/16 01:36:31;;;;;;;15.65;10.68;;;9.10;94.80;;;;;;5032256;28;20140;-62
2022/03/16 01:38:58;;;;;;;14.80;10.25;;;9.10;95.00;;;;;;5015621;28;20041;-62
2022/03/16 01:41:26;;;;;;;15.60;10.57;;;9.10;94.90;;;;;;4999303;28;20085;-62
2022/03/16 01:43:56;;;;;;;17.38;11.68;;;9.10;94.80;;;;;;5033545;28;20052;-62
2022/03/16 01:46:24;;;;;;;15.10;10.55;;;9.00;94.90;;;;;;5033538;28;20368;-62
2022/03/16 01:48:52;;;;;;;17.40;10.75;;;8.90;95.10;;;;;;5015720;28;20051;-62
2022/03/16 01:51:21;;;;;;;17.05;11.30;;;8.80;95.40;;;;;;4999573;28;20553;-62
2022/03/16 01:53:49;;;;;;;18.17;10.45;;;8.70;95.50;;;;;;5015877;28;20061;-63
2022/03/16 01:56:18;;;;;;;16.65;10.25;;;8.70;95.60;;;;;;5015756;28;20033;-63
2022/03/16 01:58:46;;;;;;;16.92;10.80;;;8.70;95.60;;;;;;5015353;28;20049;-62
2022/03/16 02:01:17;;;;;;;15.77;10.57;;;8.80;95.50;;;;;;5015829;28;20065;-62
2022/03/16 02:03:45;;;;;;;15.50;10.93;;;8.80;95.50;;;;;;5015493;28;20068;-62
2022/03/16 02:06:12;;;;;;;14.55;10.02;;;8.90;95.50;;;;;;5033083;28;20444;-62
2022/03/16 02:08:41;;;;;;;15.85;11.07;;;8.90;95.30;;;;;;5032967;28;20050;-62
2022/03/16 02:11:09;;;;;;;14.55;9.68;;;8.80;95.50;;;;;;5031955;28;20044;-62
2022/03/16 02:13:36;;;;;;;14.85;10.38;;;8.80;95.60;;;;;;5000764;28;20517;-62
2022/03/16 02:16:04;;;;;;;16.75;11.25;;;8.90;95.60;;;;;;5035441;28;20065;-62
2022/03/16 02:18:32;;;;;;;14.73;9.88;;;9.00;95.40;;;;;;5036869;28;20042;-62
2022/03/16 02:21:02;;;;;;;13.27;9.63;;;9.00;95.40;;;;;;5035669;28;20041;-63
2022/03/16 02:23:30;;;;;;;14.07;10.65;;;8.80;95.50;;;;;;5035688;28;20046;-62
2022/03/16 02:25:58;;;;;;;16.13;10.07;;;8.90;95.70;;;;;;5019503;28;20041;-62
2022/03/16 02:28:26;;;;;;;13.32;9.82;;;8.90;95.40;;;;;;5035663;28;20061;-63
2022/03/16 02:30:54;;;;;;;11.52;8.85;;;8.70;95.70;;;;;;5019106;28;20045;-62
2022/03/16 02:33:22;;;;;;;13.35;9.40;;;8.80;95.80;;;;;;5019175;28;20041;-63
2022/03/16 02:35:50;;;;;;;14.55;9.48;;;8.80;95.80;;;;;;5035416;28;20076;-62
2022/03/16 02:38:18;;;;;;;14.95;10.05;;;8.80;95.90;;;;;;5019272;28;20156;-62
2022/03/16 02:40:45;;;;;;;11.95;9.13;;;8.80;96.00;;;;;;5035117;28;20084;-62
2022/03/16 02:43:13;;;;;;;13.77;9.10;;;8.90;96.00;;;;;;5035454;28;20046;-62
2022/03/16 02:45:40;;;;;;;11.88;8.70;;;8.90;95.90;;;;;;5035388;28;20463;-62
2022/03/16 02:48:08;;;;;;;12.07;9.07;;;8.90;95.90;;;;;;5018700;28;20042;-63
2022/03/16 02:50:35;;;;;;;15.25;9.05;;;8.90;96.00;;;;;;5035122;28;20486;-63
2022/03/16 02:53:04;;;;;;;13.82;9.13;;;8.80;96.20;;;;;;5019076;28;20045;-62
2022/03/16 02:55:51;;;;;;;12.82;8.18;;;8.80;96.30;;;;;;5035080;28;20049;-62
2022/03/16 02:58:19;;;;;;;12.13;7.53;;;8.80;96.40;;;;;;5035016;28;20045;-62
2022/03/16 03:00:46;;;;;;;12.60;8.10;;;8.80;96.60;;;;;;5018381;28;20050;-62
2022/03/16 03:03:14;;;;;;;11.80;6.68;;;8.70;96.60;;;;;;5036341;28;20507;-62
2022/03/16 03:05:41;;;;;;;12.80;8.32;;;8.70;96.70;;;;;;5034984;28;20041;-62
2022/03/16 03:08:09;;;;;;;11.23;7.43;;;8.70;96.70;;;;;;5034812;28;20580;-62
2022/03/16 03:10:36;;;;;;;11.07;6.40;;;8.60;96.90;;;;;;5035987;28;20479;-62
2022/03/16 03:13:04;;;;;;;8.77;5.28;;;8.70;97.00;;;;;;5034833;28;20120;-62
2022/03/16 03:15:32;;;;;;;11.05;5.30;;;8.80;96.90;;;;;;5018135;28;20059;-62
2022/03/16 03:17:59;;;;;;;8.30;5.45;;;8.80;96.80;;;;;;5018289;28;20129;-62
2022/03/16 03:20:26;;;;;;;8.85;5.03;;;8.80;96.80;;;;;;5034613;28;20103;-62
2022/03/16 03:22:55;;;;;;;7.57;6.15;;;8.80;96.90;;;;;;5035888;28;20045;-62
2022/03/16 03:25:23;;;;;;;7.85;5.63;;;8.80;97.10;;;;;;5017127;28;20045;-63
2022/03/16 03:27:50;;;;;;;8.80;6.72;;;8.70;97.10;;;;;;5018090;28;20045;-62
2022/03/16 03:30:18;;;;;;;10.43;5.47;;;8.80;97.10;;;;;;5034665;28;20061;-62
2022/03/16 03:32:45;;;;;;;9.15;4.97;;;8.80;97.40;;;;;;5034379;28;20037;-62
2022/03/16 03:35:13;;;;;;;7.75;4.85;;;8.80;97.40;;;;;;5034409;28;20048;-62
2022/03/16 03:37:40;;;;;;;8.00;5.57;;;8.90;97.20;;;;;;5033770;28;20088;-62
2022/03/16 03:40:08;;;;;;;9.80;5.18;;;8.90;97.20;;;;;;5034122;28;20037;-63
2022/03/16 03:42:36;;;;;;;8.13;5.07;;;9.00;97.10;;;;;;5034482;28;20059;-62
2022/03/16 03:45:04;;;;;;;7.63;5.15;;;9.10;97.10;;;;;;5034210;28;20041;-62
2022/03/16 03:47:31;;;;;;;6.60;4.43;;;9.20;97.00;;;;;;5034294;28;20120;-63
2022/03/16 03:49:59;;;;;;;6.68;3.65;;;9.20;96.90;;;;;;5034223;28;20045;-62
2022/03/16 03:52:26;;;;;;;6.32;3.67;;;9.10;97.10;;;;;;5017503;28;20049;-63
2022/03/16 03:54:54;;;;;;;10.18;4.85;;;9.00;97.30;;;;;;5035167;28;20041;-62
2022/03/16 03:57:22;;;;;;;7.50;4.68;;;8.90;97.30;;;;;;5035137;28;20128;-62
2022/03/16 03:59:49;;;;;;;7.05;4.38;;;8.90;97.50;;;;;;5034928;28;20038;-62
2022/03/16 04:02:16;;;;;;;7.20;4.53;;;8.90;97.70;;;;;;5033749;28;20049;-62
2022/03/16 04:04:44;;;;;;;5.35;3.78;;;8.80;97.80;;;;;;5017409;28;20037;-62
2022/03/16 04:07:12;;;;;;;5.50;3.47;;;8.80;98.00;;;;;;5017031;28;20046;-63
2022/03/16 04:09:39;;;;;;;6.00;3.58;;;8.70;98.10;;;;;;5017583;28;20053;-62
2022/03/16 04:12:07;;;;;;;4.88;3.40;;;8.80;98.10;;;;;;5035031;28;20046;-62
2022/03/16 04:14:35;;;;;;;5.88;4.07;;;8.80;98.10;;;;;;5033968;28;20057;-62
2022/03/16 04:17:02;;;;;;;6.15;3.53;;;8.80;98.20;;;;;;5033192;28;20053;-62
2022/03/16 04:19:30;;;;;;;8.18;4.38;;;8.80;98.20;;;;;;5033504;28;20041;-62
2022/03/16 04:21:57;;;;;;;6.57;3.65;;;8.80;98.10;;;;;;5034548;28;20056;-63
2022/03/16 04:24:25;;;;;;;6.00;3.72;;;8.80;98.20;;;;;;5017049;28;20049;-63
2022/03/16 04:26:53;;;;;;;6.43;3.17;;;8.70;98.30;;;;;;5016767;28;20046;-62
2022/03/16 04:29:20;;;;;;;7.78;3.78;;;8.60;98.40;;;;;;5017325;28;20112;-63
2022/03/16 04:31:48;;;;;;;7.00;4.35;;;8.60;98.40;;;;;;5033432;28;20136;-62
2022/03/16 04:34:16;;;;;;;4.22;3.10;;;8.60;98.50;;;;;;5034374;28;20491;-63
2022/03/16 04:36:43;;;;;;;6.22;3.47;;;8.50;98.50;;;;;;5016360;28;20051;-62
2022/03/16 04:39:12;;;;;;;7.68;4.70;;;8.50;98.60;;;;;;5033181;28;20051;-63
2022/03/16 04:41:39;;;;;;;7.30;3.95;;;8.50;98.60;;;;;;5033144;28;20067;-62
2022/03/16 04:44:08;;;;;;;6.28;4.00;;;8.50;98.60;;;;;;5033181;28;20065;-62
2022/03/16 04:46:36;;;;;;;6.25;3.55;;;8.50;98.60;;;;;;5033209;28;20049;-62
2022/03/16 04:49:03;;;;;;;6.25;3.75;;;8.50;98.60;;;;;;5034195;28;20046;-62
2022/03/16 04:51:31;;;;;;;7.18;4.13;;;8.50;98.70;;;;;;5033174;28;20395;-62
2022/03/16 04:53:58;;;;;;;8.05;4.18;;;8.50;98.80;;;;;;5016515;28;20183;-62
2022/03/16 04:56:29;;;;;;;8.68;4.15;;;8.50;98.70;;;;;;5033059;28;20061;-63
2022/03/16 04:58:56;;;;;;;7.10;4.35;;;8.60;98.70;;;;;;5032876;28;20120;-62
2022/03/16 05:01:24;;;;;;;7.15;3.92;;;8.70;98.70;;;;;;5034029;28;20059;-62
2022/03/16 05:03:51;;;;;;;7.22;4.72;;;8.70;98.70;;;;;;5032769;28;20115;-62
2022/03/16 05:06:20;;;;;;;8.27;3.88;;;8.70;98.80;;;;;;5017019;28;20069;-62
2022/03/16 05:08:47;;;;;;;8.93;5.82;;;8.60;98.80;;;;;;5016606;28;20080;-62
2022/03/16 05:11:15;;;;;;;8.57;5.05;;;8.60;98.80;;;;;;5032736;28;20247;-62
2022/03/16 05:13:43;;;;;;;9.63;4.88;;;8.70;98.90;;;;;;5032609;28;20081;-62
2022/03/16 05:16:13;;;;;;;8.00;5.07;;;8.70;99.20;;;;;;5016415;28;20053;-62
2022/03/16 05:18:43;;;;;;;7.72;4.65;;;8.80;99.00;;;;;;5032538;28;20495;-62
2022/03/16 05:21:12;;;;;;;11.02;5.47;;;8.80;99.00;;;;;;5032558;28;20495;-62
2022/03/16 05:23:40;;;;;;;9.70;5.22;;;8.90;99.00;;;;;;5032463;28;20043;-62
2022/03/16 05:26:08;;;;;;;9.40;4.43;;;9.00;98.80;;;;;;5032602;28;20100;-62
2022/03/16 05:28:35;;;;;;;4.95;3.65;;;9.10;98.70;;;;;;5033681;28;20053;-63
2022/03/16 05:31:03;;;;;;;9.10;4.13;;;9.10;98.60;;;;;;5032441;28;20399;-62
2022/03/16 05:33:31;;;;;;;7.13;3.97;;;9.10;98.70;;;;;;5015986;28;20140;-62
2022/03/16 05:35:58;;;;;;;7.00;4.55;;;9.10;98.70;;;;;;5032742;28;20045;-62
2022/03/16 05:38:26;;;;;;;6.90;4.18;;;9.20;98.80;;;;;;5032347;28;20054;-63
2022/03/16 05:40:53;;;;;;;5.80;3.83;;;9.30;98.70;;;;;;5032293;28;20046;-62
2022/03/16 05:43:23;;;;;;;6.40;4.50;;;9.40;98.60;;;;;;5033481;28;20049;-62
2022/03/16 05:45:51;;;;;;;6.97;3.40;;;9.50;98.50;;;;;;5032639;28;20503;-62
2022/03/16 05:48:19;;;;;;;5.63;3.33;;;9.60;98.40;;;;;;5032758;28;20376;-62
2022/03/16 05:50:46;;;;;;;5.65;3.35;;;9.60;98.40;;;;;;5004062;28;20045;-62
2022/03/16 05:53:14;;;;;;;5.13;3.33;;;9.70;98.40;;;;;;5020121;28;20057;-63
2022/03/16 05:55:42;;;;;;;4.32;2.97;;;9.80;98.40;;;;;;5036328;28;20120;-62
2022/03/16 05:58:10;;;;;;;8.40;4.10;;;9.90;98.30;;;;;;5020145;28;20050;-62
2022/03/16 06:00:40;;;;;;;5.03;3.38;;;10.00;98.20;;;;;;5019967;28;20054;-62
2022/03/16 06:03:08;;;;;;;5.10;3.88;;;10.10;98.10;;;;;;5036325;28;20049;-62
2022/03/16 06:05:39;;;;;;;5.82;4.00;;;10.30;98.00;;;;;;5036073;28;20045;-62
2022/03/16 06:08:07;;;;;;;6.28;4.35;;;10.40;97.80;;;;;;5003579;28;20057;-63
2022/03/16 06:10:34;;;;;;;6.53;4.22;;;10.50;97.60;;;;;;5036239;28;20133;-62
2022/03/16 06:13:04;;;;;;;7.03;4.18;;;10.60;97.50;;;;;;5036103;28;20613;-62
2022/03/16 06:15:42;;;;;;;5.15;3.20;;;10.70;97.30;;;;;;5035863;28;20136;-62
2022/03/16 06:18:11;;;;;;;4.90;2.92;;;10.80;97.30;;;;;;5057077;28;20049;-62
2022/03/16 06:20:39;;;;;;;5.38;3.50;;;10.90;97.10;;;;;;5056921;28;20478;-63
2022/03/16 06:23:06;;;;;;;5.43;3.83;;;11.10;96.90;;;;;;5022731;28;20041;-62
2022/03/16 06:25:35;;;;;;;5.88;3.63;;;11.20;96.70;;;;;;5039332;28;20512;-63
2022/03/16 06:28:03;;;;;;;6.20;3.60;;;11.30;96.50;;;;;;5023015;28;20049;-62
2022/03/16 06:30:31;;;;;;;9.18;5.95;;;11.40;96.40;;;;;;5022772;28;20075;-63
2022/03/16 06:32:58;;;;;;;9.43;6.88;;;11.50;96.40;;;;;;5038959;28;20560;-63
2022/03/16 06:35:26;;;;;;;10.20;5.28;;;11.60;96.40;;;;;;5022614;28;20143;-63
2022/03/16 06:37:54;;;;;;;7.65;4.90;;;11.70;96.30;;;;;;5022734;28;20049;-62
2022/03/16 06:40:22;;;;;;;6.43;4.97;;;11.80;96.10;;;;;;5039138;28;20037;-63
2022/03/16 06:42:49;;;;;;;8.75;6.05;;;11.90;96.20;;;;;;5022500;28;20083;-62
2022/03/16 06:45:18;;;;;;;10.30;7.05;;;12.00;96.00;;;;;;5056596;28;20418;-62
2022/03/16 06:47:46;;;;;;;13.57;7.97;;;12.20;96.10;;;;;;5038745;28;20123;-62
2022/03/16 06:50:14;;;;;;;12.32;8.77;;;12.40;95.90;;;;;;5039093;28;20049;-62
2022/03/16 06:52:42;;;;;;;11.43;8.95;;;12.60;95.60;;;;;;5038913;28;20041;-62
2022/03/16 06:55:09;;;;;;;12.30;8.48;;;12.70;95.50;;;;;;5038774;28;20509;-62
2022/03/16 06:57:37;;;;;;;23.35;14.60;;;12.70;95.30;;;;;;5022179;28;20049;-62
2022/03/16 07:00:08;;;;;;;17.52;11.18;;;12.80;95.20;;;;;;5021863;28;20477;-63
2022/03/16 07:02:49;;;;;;;10.93;7.35;;;13.00;95.10;;;;;;5022054;28;20114;-62
2022/03/16 07:05:17;;;;;;;11.25;7.50;;;13.30;94.70;;;;;;5038736;28;20530;-62
2022/03/16 07:07:47;;;;;;;8.23;6.70;;;13.60;94.50;;;;;;5039170;28;20048;-62
2022/03/16 07:10:14;;;;;;;10.00;6.43;;;13.80;94.10;;;;;;5056058;28;20037;-62
2022/03/16 07:12:42;;;;;;;9.30;6.38;;;13.80;94.10;;;;;;5055869;28;20123;-63
2022/03/16 07:15:10;;;;;;;9.98;6.65;;;14.00;94.20;;;;;;5038091;28;20041;-61
2022/03/16 07:17:37;;;;;;;9.38;6.25;;;14.10;94.20;;;;;;5021421;28;20399;-60
2022/03/16 07:20:06;;;;;;;12.75;6.65;;;14.00;94.30;;;;;;5021564;28;20053;-60
2022/03/16 07:22:35;;;;;;;10.90;7.28;;;14.10;94.50;;;;;;5005328;28;20383;-61
2022/03/16 07:25:18;;;;;;;11.52;7.25;;;14.20;94.30;;;;;;5040376;28;20045;-61
2022/03/16 07:27:47;;;;;;;7.07;4.22;;;14.20;93.90;;;;;;5055774;28;20057;-60
2022/03/16 07:30:14;;;;;;;8.05;4.47;;;14.20;94.20;;;;;;5055526;28;20052;-60
2022/03/16 07:32:44;;;;;;;7.57;3.95;;;14.30;94.30;;;;;;5038324;28;20056;-60
2022/03/16 07:35:11;;;;;;;6.43;4.55;;;14.50;94.20;;;;;;5055652;28;20128;-62
2022/03/16 07:37:40;;;;;;;7.00;4.13;;;14.20;94.50;;;;;;5037784;28;20487;-63
2022/03/16 07:40:10;;;;;;;8.00;4.00;;;14.30;94.80;;;;;;5038014;28;20474;-62
2022/03/16 07:42:38;;;;;;;7.70;4.03;;;14.40;94.90;;;;;;5037851;28;20056;-63
2022/03/16 07:45:06;;;;;;;6.22;4.05;;;14.60;95.00;;;;;;5021692;28;20064;-62
2022/03/16 07:47:34;;;;;;;5.25;3.80;;;14.70;94.80;;;;;;5037910;28;20041;-62
2022/03/16 07:50:05;;;;;;;4.10;2.67;;;14.60;95.00;;;;;;5055414;28;20041;-61
2022/03/16 07:52:32;;;;;;;5.05;3.03;;;14.70;95.10;;;;;;5021351;28;20135;-60
2022/03/16 07:55:00;;;;;;;3.53;2.55;;;14.90;95.00;;;;;;5021191;28;20102;-60
2022/03/16 07:57:28;;;;;;;5.38;3.53;;;14.90;95.00;;;;;;5037805;28;20053;-61
2022/03/16 07:59:56;;;;;;;10.63;3.28;;;15.00;95.00;;;;;;5037333;28;20067;-60
2022/03/16 08:02:27;;;;;;;5.03;3.30;;;15.00;95.20;;;;;;5021172;28;20135;-60
2022/03/16 08:04:58;;;;;;;5.20;2.95;;;15.00;94.90;;;;;;5037498;28;20471;-61
2022/03/16 08:07:27;;;;;;;6.88;3.47;;;15.00;95.00;;;;;;5012598;28;20052;-63
2022/03/16 08:09:59;;;;;;;4.22;2.63;;;15.10;95.10;;;;;;5034333;28;20041;-61
2022/03/16 08:12:27;;;;;;;4.63;2.80;;;15.20;95.10;;;;;;5049331;28;20069;-61
2022/03/16 08:14:55;;;;;;;3.40;2.80;;;15.30;94.70;;;;;;5016101;28;20045;-60
2022/03/16 08:17:22;;;;;;;6.05;3.30;;;15.40;94.60;;;;;;5012516;28;20064;-61
2022/03/16 08:19:53;;;;;;;5.95;3.83;;;15.60;94.80;;;;;;5013275;28;20439;-60
2022/03/16 08:22:39;;;;;;;5.40;3.92;;;15.40;94.70;;;;;;5012657;28;20052;-61
2022/03/16 08:25:10;;;;;;;7.03;4.00;;;15.10;94.20;;;;;;5013378;28;20064;-61
2022/03/16 08:27:42;;;;;;;5.47;3.35;;;15.00;94.70;;;;;;5014149;28;20042;-61
2022/03/16 08:30:10;;;;;;;4.90;3.08;;;15.20;94.50;;;;;;5014214;28;20112;-61
2022/03/16 08:32:40;;;;;;;5.80;3.40;;;15.40;94.10;;;;;;5028848;28;20038;-60
2022/03/16 08:35:08;;;;;;;7.07;3.88;;;15.60;94.40;;;;;;5012460;28;20054;-60
2022/03/16 08:37:37;;;;;;;7.07;3.75;;;15.50;94.20;;;;;;5029412;28;20503;-61
2022/03/16 08:40:07;;;;;;;6.20;3.25;;;15.40;94.10;;;;;;5014841;28;20042;-61
2022/03/16 08:42:35;;;;;;;5.07;3.53;;;15.40;94.20;;;;;;5014698;28;20100;-61
2022/03/16 08:45:02;;;;;;;9.13;3.53;;;15.20;94.30;;;;;;5014641;28;20395;-61
2022/03/16 08:47:31;;;;;;;3.67;2.75;;;15.30;94.00;;;;;;5013670;28;20044;-60
2022/03/16 08:49:58;;;;;;;5.53;3.50;;;15.50;94.00;;;;;;5046708;28;20061;-60
2022/03/16 08:52:26;;;;;;;11.98;3.83;;;15.90;94.10;;;;;;5011422;28;20064;-61
2022/03/16 08:54:54;;;;;;;6.13;3.63;;;16.10;93.80;;;;;;4995718;28;20136;-60
2022/03/16 08:57:22;;;;;;;9.35;3.95;;;15.90;93.60;;;;;;5014439;28;20065;-61
2022/03/16 08:59:50;;;;;;;5.13;2.90;;;15.70;93.80;;;;;;5013508;28;20037;-60
2022/03/16 09:02:18;;;;;;;7.28;4.13;;;15.70;93.80;;;;;;5013400;28;20061;-60
2022/03/16 09:04:45;;;;;;;4.75;3.08;;;15.50;93.70;;;;;;5013147;28;20038;-60
2022/03/16 09:07:13;;;;;;;13.65;4.45;;;15.50;93.80;;;;;;4996740;28;20072;-60
2022/03/16 09:09:40;;;;;;;5.63;3.10;;;15.60;94.20;;;;;;5013235;28;20042;-60
2022/03/16 09:12:11;;;;;;;4.90;2.90;;;15.90;93.80;;;;;;5014537;28;20042;-60
2022/03/16 09:14:41;;;;;;;12.20;3.92;;;15.90;93.20;;;;;;5013190;28;20041;-60
2022/03/16 09:17:10;;;;;;;6.00;3.22;;;16.00;93.00;;;;;;5026800;28;20380;-60
2022/03/16 09:19:38;;;;;;;4.38;2.40;;;16.10;93.40;;;;;;5016335;28;20403;-60
2022/03/16 09:22:06;;;;;;;5.15;2.65;;;16.00;92.70;;;;;;5033640;28;20607;-60
2022/03/16 09:24:34;;;;;;;4.55;3.25;;;16.30;92.80;;;;;;5033973;28;20486;-60
2022/03/16 09:27:02;;;;;;;4.40;2.30;;;16.50;92.80;;;;;;5032739;28;20041;-60
2022/03/16 09:29:29;;;;;;;6.15;3.67;;;16.60;92.20;;;;;;5016381;28;20437;-61
2022/03/16 09:31:59;;;;;;;4.40;2.40;;;16.70;92.20;;;;;;5016699;28;20045;-60
2022/03/16 09:34:27;;;;;;;7.30;2.63;;;16.80;92.10;;;;;;5032376;28;20077;-61
2022/03/16 09:36:55;;;;;;;4.35;2.72;;;16.90;91.90;;;;;;5033829;28;20045;-60
2022/03/16 09:39:22;;;;;;;5.43;3.13;;;17.20;92.10;;;;;;5032628;28;20041;-61
2022/03/16 09:41:50;;;;;;;5.40;3.35;;;17.50;92.10;;;;;;5033664;28;20095;-61
2022/03/16 09:44:18;;;;;;;7.95;3.25;;;17.40;91.90;;;;;;5016013;28;20034;-61
2022/03/16 09:46:50;;;;;;;6.22;3.97;;;17.80;91.40;;;;;;5033543;28;20041;-61
2022/03/16 09:49:18;;;;;;;7.30;2.60;;;17.80;91.60;;;;;;5033619;28;20426;-60
2022/03/16 09:51:45;;;;;;;4.18;2.67;;;17.70;91.30;;;;;;5016370;28;20055;-60
2022/03/16 09:54:13;;;;;;;4.03;2.50;;;17.70;91.10;;;;;;5033637;28;20080;-60
2022/03/16 09:56:41;;;;;;;4.40;3.05;;;17.60;91.10;;;;;;5033402;28;20103;-61
2022/03/16 09:59:08;;;;;;;4.97;3.08;;;17.50;91.20;;;;;;5015989;28;20037;-61
2022/03/16 10:01:36;;;;;;;6.55;4.10;;;17.60;91.40;;;;;;5015714;28;20087;-60
2022/03/16 10:04:06;;;;;;;6.57;4.65;;;17.60;91.30;;;;;;5015782;28;20055;-60
2022/03/16 10:06:41;;;;;;;7.85;3.78;;;17.40;90.80;;;;;;5033334;28;20037;-60
2022/03/16 10:15:10;;;;;;;4.63;2.60;;;17.00;91.40;;;;;;5015799;28;20372;-60
2022/03/16 10:17:45;;;;;;;3.95;2.88;;;17.00;91.30;;;;;;5033165;28;20054;-60
2022/03/16 10:20:21;;;;;;;10.10;4.72;;;17.00;91.00;;;;;;5032064;28;20041;-60
2022/03/16 10:23:17;;;;;;;4.82;3.90;;;16.90;91.40;;;;;;5015397;28;20042;-60
2022/03/16 10:25:47;;;;;;;4.53;3.08;;;16.90;91.50;;;;;;5032015;28;20042;-60
2022/03/16 10:28:19;;;;;;;4.70;2.97;;;17.00;91.80;;;;;;5033122;28;20103;-60
2022/03/16 10:31:05;;;;;;;6.55;3.70;;;17.10;91.70;;;;;;5033123;28;20045;-60
2022/03/16 10:33:47;;;;;;;4.03;2.57;;;17.30;91.00;;;;;;4999276;28;20140;-60
2022/03/16 10:36:18;;;;;;;4.05;2.20;;;17.10;90.50;;;;;;5019266;28;20329;-60
2022/03/16 10:38:58;;;;;;;5.30;3.33;;;17.00;90.90;;;;;;5019253;28;20053;-60
2022/03/16 10:47:20;;;;;;;4.63;2.65;;;17.20;91.00;;;;;;5018990;28;20049;-61
2022/03/16 10:50:06;;;;;;;6.53;4.43;;;17.40;90.30;;;;;;5019375;28;20111;-61
2022/03/16 10:52:37;;;;;;;5.55;3.33;;;17.30;90.60;;;;;;5019713;28;20047;-61
2022/03/16 10:55:05;;;;;;;10.82;3.30;;;17.10;90.40;;;;;;5019205;28;20049;-61
2022/03/16 10:57:34;;;;;;;5.20;3.20;;;17.10;90.50;;;;;;5002585;28;20555;-61
2022/03/16 11:00:03;;;;;;;9.45;5.35;;;17.20;90.70;;;;;;5035170;28;20137;-61
2022/03/16 11:02:34;;;;;;;6.00;3.92;;;16.80;90.40;;;;;;5036194;28;20037;-61
2022/03/16 11:05:01;;;;;;;4.55;3.03;;;16.70;90.60;;;;;;5036153;28;20045;-61
2022/03/16 11:07:31;;;;;;;9.65;4.32;;;16.80;90.80;;;;;;5036274;28;20136;-61
2022/03/16 11:09:59;;;;;;;7.07;3.55;;;16.90;91.20;;;;;;5034875;28;20521;-61
2022/03/16 11:15:19;;;;;;;4.43;2.85;;;17.40;91.20;;;;;;5034918;28;20052;-61
2022/03/16 11:17:47;;;;;;;4.22;3.53;;;17.50;90.20;;;;;;5018426;28;20411;-61
2022/03/16 11:20:15;;;;;;;4.13;3.28;;;17.50;90.60;;;;;;5018517;28;20044;-61
2022/03/16 11:26:21;;;;;;;4.60;2.90;;;17.30;90.40;;;;;;5018141;28;20080;-61
2022/03/16 11:29:26;;;;;;;5.18;2.83;;;17.20;90.50;;;;;;5018497;28;20087;-62
2022/03/16 11:32:15;;;;;;;3.97;2.75;;;17.20;90.20;;;;;;5018073;28;20053;-61
2022/03/16 11:34:55;;;;;;;4.57;2.80;;;17.10;90.10;;;;;;5017977;28;20053;-61
2022/03/16 11:37:46;;;;;;;4.13;3.08;;;17.00;90.10;;;;;;5035625;28;20046;-61
2022/03/16 11:40:20;;;;;;;5.78;3.10;;;17.00;90.50;;;;;;5002086;28;20054;-60
2022/03/16 11:43:11;;;;;;;10.75;3.00;;;17.30;90.10;;;;;;5017873;28;20042;-61
2022/03/16 11:45:50;;;;;;;4.72;2.67;;;17.50;90.10;;;;;;5017135;28;20049;-61
2022/03/16 11:51:11;;;;;;;4.97;2.83;;;17.40;89.50;;;;;;5035467;28;20136;-61
2022/03/16 11:56:31;;;;;;;8.75;4.80;;;17.40;89.50;;;;;;5035564;28;20046;-61
2022/03/16 11:59:04;;;;;;;10.43;6.13;;;17.50;90.10;;;;;;5017922;28;20046;-61
2022/03/16 12:01:38;;;;;;;5.30;4.05;;;17.40;90.50;;;;;;5033939;28;20042;-61
2022/03/16 12:04:22;;;;;;;8.15;5.05;;;17.30;90.30;;;;;;5017813;28;20045;-61
2022/03/16 12:07:04;;;;;;;8.25;5.38;;;17.20;90.20;;;;;;5017946;28;20042;-60
2022/03/16 12:09:32;;;;;;;6.60;4.80;;;17.00;90.30;;;;;;5035301;28;20048;-61
2022/03/16 12:15:17;;;;;;;8.10;5.22;;;17.00;90.90;;;;;;5016776;28;20144;-61
2022/03/16 12:17:54;;;;;;;7.07;4.78;;;16.80;91.40;;;;;;5034567;28;20054;-61
2022/03/16 12:20:40;;;;;;;7.78;3.92;;;16.70;91.30;;;;;;5017499;28;20050;-61
2022/03/16 12:23:18;;;;;;;9.93;4.33;;;16.60;91.70;;;;;;5034865;28;20092;-61
2022/03/16 12:25:50;;;;;;;6.57;4.07;;;16.60;91.60;;;;;;5017235;28;20284;-60
2022/03/16 12:31:15;;;;;;;6.50;4.47;;;16.60;91.40;;;;;;5017063;28;20049;-61
2022/03/16 12:33:47;;;;;;;7.28;4.63;;;16.60;91.50;;;;;;5017038;28;20124;-60
2022/03/16 12:36:18;;;;;;;7.65;3.80;;;16.40;91.30;;;;;;5034539;28;20115;-60
2022/03/16 12:39:12;;;;;;;4.93;3.45;;;16.50;91.50;;;;;;5034702;28;20037;-61
2022/03/16 12:44:36;;;;;;;14.15;4.88;;;16.50;91.60;;;;;;5034633;28;20049;-61
2022/03/16 12:47:22;;;;;;;8.23;4.03;;;16.60;92.30;;;;;;5015484;28;20041;-60
2022/03/16 12:49:50;;;;;;;8.52;5.03;;;16.60;92.00;;;;;;5016368;28;20037;-60
2022/03/16 12:52:18;;;;;;;4.55;3.15;;;16.60;91.80;;;;;;5034201;28;20037;-61
2022/03/16 12:54:46;;;;;;;6.40;4.65;;;16.50;91.90;;;;;;5034118;28;20042;-60
2022/03/16 12:57:15;;;;;;;5.22;3.25;;;16.60;92.10;;;;;;5033530;28;20038;-61
2022/03/16 12:59:46;;;;;;;6.30;3.90;;;16.60;91.60;;;;;;5000366;28;20081;-60
2022/03/16 13:02:22;;;;;;;7.40;3.35;;;16.80;91.30;;;;;;5000058;28;20103;-60
2022/03/16 13:04:52;;;;;;;8.13;4.45;;;16.80;91.10;;;;;;5016700;28;20490;-61
2022/03/16 13:07:21;;;;;;;8.60;3.42;;;16.70;91.40;;;;;;5016606;28;20048;-60
2022/03/16 13:09:49;;;;;;;8.35;4.03;;;16.60;91.50;;;;;;5034129;28;20123;-60
2022/03/16 13:12:17;;;;;;;5.88;3.70;;;16.30;91.70;;;;;;5034085;28;20047;-60
2022/03/16 13:14:47;;;;;;;6.55;3.55;;;16.30;92.20;;;;;;5016281;28;20037;-61
2022/03/16 13:17:16;;;;;;;6.88;4.28;;;16.30;92.10;;;;;;5015711;28;20061;-61
2022/03/16 13:19:48;;;;;;;7.10;4.80;;;16.30;92.30;;;;;;5000153;28;20046;-61
2022/03/16 13:22:18;;;;;;;6.85;4.78;;;16.40;92.10;;;;;;5016570;28;20046;-60
2022/03/16 13:24:53;;;;;;;9.07;4.68;;;16.40;91.70;;;;;;5033938;28;20037;-61
2022/03/16 13:27:26;;;;;;;6.97;4.57;;;16.40;91.90;;;;;;5016294;28;20045;-62
2022/03/16 13:29:57;;;;;;;5.65;4.15;;;16.50;91.70;;;;;;5033716;28;20379;-61